Météo Nord-Pas-de-Calais   La météo au plus près de chez vous

Station météorologique

Observations météo à Batz (29082)

29082001 32 m Dernier relevé à 09:54
18.6°C
Vent 15.8 km/h

Journée consultée

Jeudi 3 Septembre 2026

Synthèse de la journée

Périodes de référence en UTC

Température maximale

18.6°C

à 09:42

06h 06h

Température minimale

17.5°C

à 00:54

18h 18h

Rafale maximale

34 km/h

à 02:24

00h 00h

Précipitations

0 mm

Cumul quotidien

06h 06h

Graphiques de la journée

Heure locale Réduire

Données détaillées

Relevés météo

Pas de 6 minutes Afficher les relevés infra-horaires
Relevés météo détaillés à Batz pour le Jeudi 3 Septembre 2026
Heure Température °C Vent moyen (raf.), km/h Précipitations mm
09:54 18.6 °C 14 km/h (21 km/h) 0 mm0 mm
09:48 18.6 °C 14 km/h (22 km/h) 0 mm0 mm
09:42 18.6 °C 15 km/h (24 km/h) 0 mm0 mm
09:36 18.5 °C 15 km/h (24 km/h) 0 mm0 mm
09:30 18.4 °C 14 km/h (20 km/h) 0 mm0 mm
09:24 18.5 °C 15 km/h (22 km/h) 0 mm0 mm
09:18 18.4 °C 15 km/h (23 km/h) 0 mm0 mm
09:12 18.4 °C 15 km/h (22 km/h) 0 mm0 mm
09:06 18.4 °C 16 km/h (24 km/h) 0 mm0 mm
09:00 18.4 °C 16 km/h (23 km/h) 0 mm0 mm
08:54 18.4 °C 16 km/h (24 km/h) 0 mm0 mm
08:48 18.3 °C 16 km/h (24 km/h) 0 mm0 mm
08:42 18.3 °C 16 km/h (25 km/h) 0 mm0 mm
08:36 18.3 °C 17 km/h (23 km/h) 0 mm0 mm
08:30 18.3 °C 17 km/h (24 km/h) 0 mm0 mm
08:24 18.2 °C 17 km/h (24 km/h) 0 mm0 mm
08:18 18.2 °C 16 km/h (24 km/h) 0 mm0 mm
08:12 18.2 °C 16 km/h (24 km/h) 0 mm0 mm
08:06 18.2 °C 16 km/h (24 km/h) 0 mm0 mm
08:00 18.2 °C 15 km/h (24 km/h) 0 mm0 mm
07:54 18.1 °C 15 km/h (24 km/h) 0 mm0 mm
07:48 18.1 °C 15 km/h (22 km/h) 0 mm0 mm
07:42 18.1 °C 17 km/h (23 km/h) 0 mm0 mm
07:36 18.2 °C 17 km/h (23 km/h) 0 mm0 mm
07:30 18.1 °C 16 km/h (25 km/h) 0 mm0 mm
07:24 18.1 °C 15 km/h (25 km/h) 0 mm0 mm
07:18 18.2 °C 15 km/h (25 km/h) 0 mm0 mm
07:12 18.1 °C 17 km/h (26 km/h) 0 mm0 mm
07:06 18.1 °C 17 km/h (26 km/h) 0 mm0 mm
07:00 18 °C 17 km/h (26 km/h) 0 mm0 mm
06:54 18 °C 16 km/h (26 km/h) 0 mm0 mm
06:48 18 °C 17 km/h (25 km/h) 0 mm0 mm
06:42 18 °C 19 km/h (28 km/h) 0 mm0 mm
06:36 18 °C 20 km/h (28 km/h) 0 mm0 mm
06:30 18 °C 19 km/h (27 km/h) 0 mm0 mm
06:24 18 °C 21 km/h (30 km/h) 0 mm0 mm
06:18 18 °C 20 km/h (30 km/h) 0 mm0 mm
06:12 17.9 °C 17 km/h (28 km/h) 0 mm0 mm
06:06 17.9 °C 15 km/h (28 km/h) 0 mm0 mm
06:00 17.9 °C 15 km/h (23 km/h) 0 mm0 mm
05:54 17.9 °C 16 km/h (24 km/h) 0 mm0 mm
05:48 17.9 °C 16 km/h (25 km/h) 0 mm0 mm
05:42 17.9 °C 17 km/h (26 km/h) 0 mm0 mm
05:36 17.9 °C 19 km/h (30 km/h) 0 mm0 mm
05:30 17.8 °C 20 km/h (30 km/h) 0 mm0 mm
05:24 17.8 °C 19 km/h (26 km/h) 0 mm0 mm
05:18 17.8 °C 18 km/h (25 km/h) 0 mm0 mm
05:12 17.8 °C 17 km/h (25 km/h) 0 mm0 mm
05:06 17.8 °C 19 km/h (26 km/h) 0 mm0 mm
05:00 17.8 °C 18 km/h (26 km/h) 0 mm0 mm
04:54 17.9 °C 18 km/h (26 km/h) 0 mm0 mm
04:48 17.9 °C 18 km/h (26 km/h) 0 mm0 mm
04:42 17.9 °C 18 km/h (26 km/h) 0 mm0 mm
04:36 17.9 °C 18 km/h (26 km/h) 0 mm0 mm
04:30 17.9 °C 18 km/h (24 km/h) 0 mm0 mm
04:24 17.9 °C 17 km/h (23 km/h) 0 mm0 mm
04:18 17.9 °C 18 km/h (25 km/h) 0 mm0 mm
04:12 17.9 °C 17 km/h (24 km/h) 0 mm0 mm
04:06 17.9 °C 16 km/h (24 km/h) 0 mm0 mm
04:00 17.9 °C 15 km/h (23 km/h) 0 mm0 mm
03:54 17.9 °C 15 km/h (23 km/h) 0 mm0 mm
03:48 17.9 °C 14 km/h (21 km/h) 0 mm0 mm
03:42 17.8 °C 14 km/h (21 km/h) 0 mm0 mm
03:36 17.8 °C 15 km/h (22 km/h) 0 mm0 mm
03:30 17.9 °C 15 km/h (22 km/h) 0 mm0 mm
03:24 17.8 °C 15 km/h (24 km/h) 0 mm0 mm
03:18 17.9 °C 17 km/h (25 km/h) 0 mm0 mm
03:12 17.9 °C 16 km/h (25 km/h) 0 mm0 mm
03:06 17.9 °C 15 km/h (25 km/h) 0 mm0 mm
03:00 18 °C 20 km/h (33 km/h) 0 mm0 mm
02:54 18.1 °C 24 km/h (33 km/h) 0 mm0 mm
02:48 18.2 °C 19 km/h (33 km/h) 0 mm0 mm
02:42 18.1 °C 16 km/h (30 km/h) 0 mm0 mm
02:36 18.2 °C 18 km/h (30 km/h) 0 mm0 mm
02:30 18.2 °C 19 km/h (28 km/h) 0 mm0 mm
02:24 18.3 °C 21 km/h (33 km/h) 0 mm0 mm
02:18 18.3 °C 20 km/h (31 km/h) 0 mm0 mm
02:12 18.3 °C 20 km/h (31 km/h) 0 mm0 mm
02:06 18.2 °C 18 km/h (31 km/h) 0 mm0 mm
02:00 18.2 °C 18 km/h (34 km/h) 0 mm0 mm
01:54 18.1 °C 20 km/h (34 km/h) 0 mm0 mm
01:48 18 °C 20 km/h (27 km/h) 0 mm0 mm
01:42 18 °C 19 km/h (28 km/h) 0 mm0 mm
01:36 17.8 °C 17 km/h (27 km/h) 0 mm0 mm
01:30 17.9 °C 18 km/h (26 km/h) 0 mm0 mm
01:24 17.8 °C 18 km/h (26 km/h) 0 mm0 mm
01:18 17.8 °C 18 km/h (28 km/h) 0 mm0 mm
01:12 17.7 °C 19 km/h (28 km/h) 0 mm0 mm
01:06 17.6 °C 19 km/h (26 km/h) 0 mm0 mm
01:00 17.6 °C 19 km/h (26 km/h) 0 mm0 mm
00:54 17.5 °C 19 km/h (28 km/h) 0 mm0 mm
00:48 17.6 °C 19 km/h (28 km/h) 0 mm0 mm
00:42 17.6 °C 19 km/h (27 km/h) 0 mm0 mm
00:36 17.6 °C 19 km/h (28 km/h) 0 mm0 mm
00:30 17.6 °C 19 km/h (28 km/h) 0 mm0 mm
00:24 17.7 °C 21 km/h (32 km/h) 0 mm0 mm
00:18 17.8 °C 21 km/h (32 km/h) 0 mm0 mm
00:12 18 °C 21 km/h (30 km/h) 0 mm0 mm
00:06 18 °C 21 km/h (31 km/h) 0 mm0 mm
00:00 18.1 °C 21 km/h (31 km/h) 0 mm0 mm

Données via Météo-France

Relevés météo à Batz

Cette page rassemble les observations de la station de Batz : température, humidité, vent, précipitations et pression atmosphérique. Les graphiques facilitent le suivi de la journée, tandis que le tableau donne accès aux mesures horaires et infra-horaires disponibles.

Pour replacer ces mesures dans leur contexte, consultez la climatologie de Batz ainsi que ses normales et records. Retrouvez aussi la carte des observations météo en temps réel.